createdAt,value
2022-12-18T00:00:35.844Z,99.99
2022-12-18T00:01:35.866Z,99.99
2022-12-18T00:02:35.854Z,99.99
2022-12-18T00:03:35.857Z,99.99
2022-12-18T00:04:35.608Z,99.99
2022-12-18T00:05:35.563Z,99.99
2022-12-18T00:06:35.488Z,99.99
2022-12-18T00:07:35.422Z,99.99
2022-12-18T00:08:35.339Z,99.99
2022-12-18T00:09:40.286Z,99.99
2022-12-18T00:10:35.225Z,99.99
2022-12-18T00:11:35.190Z,99.99
2022-12-18T00:12:35.096Z,99.99
2022-12-18T00:13:35.319Z,99.99
2022-12-18T00:14:34.995Z,99.99
2022-12-18T00:15:34.912Z,99.99
2022-12-18T00:16:34.927Z,99.99
2022-12-18T00:17:34.784Z,99.99
2022-12-18T00:18:34.849Z,99.99
2022-12-18T00:19:34.669Z,99.99
2022-12-18T00:20:34.600Z,99.99
2022-12-18T00:21:34.561Z,99.99
2022-12-18T00:22:34.462Z,99.99
2022-12-18T00:23:34.415Z,99.99
2022-12-18T00:24:34.364Z,99.99
2022-12-18T00:25:34.307Z,99.99
2022-12-18T00:26:34.223Z,99.99
2022-12-18T00:27:34.151Z,99.99
2022-12-18T00:28:34.103Z,99.99
2022-12-18T00:29:34.047Z,99.99
2022-12-18T00:30:33.971Z,99.99
2022-12-18T00:31:34.027Z,99.99
2022-12-18T00:32:33.859Z,99.99
2022-12-18T00:33:33.776Z,99.99
2022-12-18T00:34:33.744Z,99.99
2022-12-18T00:35:33.671Z,99.99
2022-12-18T00:36:33.611Z,99.99
2022-12-18T00:37:33.531Z,99.99
2022-12-18T00:38:33.483Z,99.99
2022-12-18T00:39:33.433Z,99.99
2022-12-18T00:40:33.350Z,99.99
2022-12-18T00:41:33.317Z,99.99
2022-12-18T00:42:33.237Z,99.99
2022-12-18T00:43:33.180Z,99.99
2022-12-18T00:44:33.112Z,99.99
2022-12-18T00:45:33.105Z,99.99
2022-12-18T00:46:32.970Z,99.99
2022-12-18T00:47:32.940Z,99.99
2022-12-18T00:48:32.860Z,99.99
2022-12-18T00:49:32.820Z,99.99
2022-12-18T00:50:32.730Z,99.99
2022-12-18T00:51:32.712Z,99.99
2022-12-18T00:52:32.606Z,99.99
2022-12-18T00:53:32.558Z,99.99
2022-12-18T00:54:32.481Z,99.99
2022-12-18T00:55:32.411Z,99.99
2022-12-18T00:56:32.356Z,99.99
2022-12-18T00:57:32.273Z,99.99
2022-12-18T00:58:32.263Z,99.99
2022-12-18T00:59:32.176Z,99.99
2022-12-18T01:00:32.100Z,99.99
2022-12-18T01:01:32.228Z,99.99
2022-12-18T01:02:32.041Z,99.99
2022-12-18T01:03:32.021Z,99.99
2022-12-18T01:04:31.852Z,99.99
2022-12-18T01:05:31.768Z,99.99
2022-12-18T01:06:31.730Z,99.99
2022-12-18T01:07:31.693Z,99.99
2022-12-18T01:08:31.604Z,99.99
2022-12-18T01:09:31.564Z,99.99
2022-12-18T01:10:31.489Z,99.99
2022-12-18T01:11:31.414Z,99.99
2022-12-18T01:12:31.403Z,99.99
2022-12-18T01:13:31.281Z,99.99
2022-12-18T01:14:31.235Z,99.99
2022-12-18T01:15:31.155Z,99.99
2022-12-18T01:16:31.156Z,99.99
2022-12-18T01:17:31.062Z,99.99
2022-12-18T01:18:30.977Z,99.99
2022-12-18T01:19:30.942Z,99.99
2022-12-18T01:20:30.853Z,99.99
2022-12-18T01:21:30.829Z,99.99
2022-12-18T01:22:30.713Z,99.99
2022-12-18T01:23:30.680Z,99.99
2022-12-18T01:24:30.640Z,99.99
2022-12-18T01:25:30.559Z,99.99
2022-12-18T01:26:30.577Z,99.99
2022-12-18T01:27:30.472Z,99.99
2022-12-18T01:28:30.356Z,99.99
2022-12-18T01:29:30.311Z,99.99
2022-12-18T01:30:30.234Z,99.99
2022-12-18T01:31:30.239Z,99.99
2022-12-18T01:32:30.087Z,99.99
2022-12-18T01:33:30.046Z,99.99
2022-12-18T01:34:29.991Z,99.99
2022-12-18T01:35:29.907Z,99.99
2022-12-18T01:36:29.841Z,99.99
2022-12-18T01:37:29.786Z,99.99
2022-12-18T01:38:29.765Z,99.99
2022-12-18T01:39:29.685Z,99.99
2022-12-18T01:40:29.582Z,99.99
2022-12-18T01:41:29.555Z,99.99
2022-12-18T01:42:29.466Z,99.99
2022-12-18T01:43:29.423Z,99.99
2022-12-18T01:44:29.363Z,99.99
2022-12-18T01:45:29.349Z,99.99
2022-12-18T01:46:29.235Z,99.99
2022-12-18T01:47:29.170Z,99.99
2022-12-18T01:48:29.106Z,99.99
2022-12-18T01:49:29.069Z,99.99
2022-12-18T01:50:28.996Z,99.99
2022-12-18T01:51:28.926Z,99.99
2022-12-18T01:52:28.893Z,99.99
2022-12-18T01:53:28.784Z,99.99
2022-12-18T01:54:28.752Z,99.99
2022-12-18T01:55:28.674Z,99.99
2022-12-18T01:56:28.614Z,99.99
2022-12-18T01:57:28.530Z,99.99
2022-12-18T01:58:28.514Z,99.99
2022-12-18T01:59:28.447Z,99.99
2022-12-18T02:00:28.370Z,99.99
2022-12-18T02:01:28.445Z,99.99
2022-12-18T02:02:28.274Z,99.99
2022-12-18T02:03:28.219Z,99.99
2022-12-18T02:04:28.131Z,99.99
2022-12-18T02:05:28.047Z,99.99
2022-12-18T02:06:27.973Z,99.99
2022-12-18T02:07:27.912Z,99.99
2022-12-18T02:08:27.904Z,99.99
2022-12-18T02:09:27.817Z,99.99
2022-12-18T02:10:27.723Z,99.99
2022-12-18T02:11:27.660Z,99.99
2022-12-18T02:12:27.610Z,99.99
2022-12-18T02:13:27.652Z,99.99
2022-12-18T02:14:27.505Z,99.99
2022-12-18T02:15:27.416Z,99.99
2022-12-18T02:16:27.402Z,99.99
2022-12-18T02:17:27.298Z,99.99
2022-12-18T02:18:27.250Z,99.99
2022-12-18T02:19:27.193Z,99.99
2022-12-18T02:20:27.118Z,99.99
2022-12-18T02:21:27.050Z,99.99
2022-12-18T02:22:27.016Z,99.99
2022-12-18T02:23:26.956Z,99.99
2022-12-18T02:24:26.860Z,99.99
2022-12-18T02:25:26.801Z,99.99
2022-12-18T02:26:26.833Z,99.99
2022-12-18T02:27:26.663Z,99.99
2022-12-18T02:28:26.627Z,99.99
2022-12-18T02:29:26.657Z,99.99
2022-12-18T02:30:26.531Z,99.99
2022-12-18T02:31:26.436Z,99.99
2022-12-18T02:32:26.340Z,99.99
2022-12-18T02:33:26.339Z,99.99
2022-12-18T02:34:26.260Z,99.99
2022-12-18T02:35:26.168Z,99.99
2022-12-18T02:36:26.123Z,99.99
2022-12-18T02:37:26.063Z,99.99
2022-12-18T02:38:25.998Z,99.99
2022-12-18T02:39:25.950Z,99.99
2022-12-18T02:40:25.910Z,99.99
2022-12-18T02:41:25.813Z,99.99
2022-12-18T02:42:25.776Z,99.99
2022-12-18T02:43:25.692Z,99.99
2022-12-18T02:44:25.636Z,99.99
2022-12-18T02:45:25.636Z,99.99
2022-12-18T02:46:25.504Z,99.99
2022-12-18T02:47:25.459Z,99.99
2022-12-18T02:48:25.385Z,99.99
2022-12-18T02:49:25.314Z,99.99
2022-12-18T02:50:25.285Z,99.99
2022-12-18T02:51:25.191Z,99.99
2022-12-18T02:52:25.127Z,99.99
2022-12-18T02:53:25.059Z,99.99
2022-12-18T02:54:25.022Z,99.99
2022-12-18T02:55:24.975Z,99.99
2022-12-18T02:56:24.858Z,99.99
2022-12-18T02:57:24.852Z,99.99
2022-12-18T02:58:24.787Z,99.99
2022-12-18T02:59:24.710Z,99.99
2022-12-18T03:00:24.621Z,99.99
2022-12-18T03:01:24.843Z,99.99
2022-12-18T03:02:24.729Z,99.99
2022-12-18T03:03:24.493Z,99.99
2022-12-18T03:04:24.377Z,99.99
2022-12-18T03:05:24.308Z,99.99
2022-12-18T03:06:24.292Z,99.99
2022-12-18T03:07:24.184Z,99.99
2022-12-18T03:08:24.111Z,99.99
2022-12-18T03:09:24.101Z,99.99
2022-12-18T03:10:23.987Z,99.99
2022-12-18T03:11:23.955Z,99.99
2022-12-18T03:12:23.867Z,99.99
2022-12-18T03:13:23.848Z,99.99
2022-12-18T03:14:23.781Z,99.99
2022-12-18T03:15:23.701Z,99.99
2022-12-18T03:16:23.693Z,99.99
2022-12-18T03:17:23.656Z,99.99
2022-12-18T03:18:23.509Z,99.99
2022-12-18T03:19:23.489Z,99.99
2022-12-18T03:20:23.404Z,99.99
2022-12-18T03:21:23.296Z,99.99
2022-12-18T03:22:23.253Z,99.99
2022-12-18T03:23:26.125Z,99.99
2022-12-18T03:24:23.148Z,99.99
2022-12-18T03:25:23.108Z,99.99
2022-12-18T03:26:23.038Z,99.99
2022-12-18T03:27:22.967Z,99.99
2022-12-18T03:28:22.888Z,99.99
2022-12-18T03:29:22.856Z,99.99
2022-12-18T03:30:22.816Z,99.99
2022-12-18T03:31:22.828Z,99.99
2022-12-18T03:32:22.653Z,99.99
2022-12-18T03:33:22.660Z,99.99
2022-12-18T03:34:22.526Z,99.99
2022-12-18T03:35:22.478Z,99.99
2022-12-18T03:36:22.417Z,99.99
2022-12-18T03:37:22.334Z,99.99
2022-12-18T03:38:22.289Z,99.99
2022-12-18T03:39:22.243Z,99.99
2022-12-18T03:40:22.182Z,99.99
2022-12-18T03:41:22.080Z,99.99
2022-12-18T03:42:22.020Z,99.99
2022-12-18T03:43:21.950Z,99.99
2022-12-18T03:44:21.919Z,99.99
2022-12-18T03:45:21.845Z,99.99
2022-12-18T03:46:21.828Z,99.99
2022-12-18T03:47:21.705Z,99.99
2022-12-18T03:48:21.650Z,99.99
2022-12-18T03:49:21.694Z,99.99
2022-12-18T03:50:21.505Z,99.99
2022-12-18T03:51:21.464Z,99.99
2022-12-18T03:52:21.385Z,99.99
2022-12-18T03:53:21.343Z,99.99
2022-12-18T03:54:21.310Z,99.99
2022-12-18T03:55:21.235Z,99.99
2022-12-18T03:56:21.174Z,99.99
2022-12-18T03:57:21.085Z,99.99
2022-12-18T03:58:21.060Z,99.99
2022-12-18T03:59:20.972Z,99.99
2022-12-18T04:00:20.930Z,99.99
2022-12-18T04:01:20.922Z,99.99
2022-12-18T04:02:20.967Z,99.99
2022-12-18T04:03:25.461Z,99.99
2022-12-18T04:04:20.665Z,99.99
2022-12-18T04:05:20.694Z,99.99
2022-12-18T04:06:20.529Z,99.99
2022-12-18T04:07:20.474Z,99.99
2022-12-18T04:08:20.410Z,99.99
2022-12-18T04:09:20.355Z,99.99
2022-12-18T04:10:20.327Z,99.99
2022-12-18T04:11:20.237Z,99.99
2022-12-18T04:12:20.148Z,99.99
2022-12-18T04:13:20.117Z,99.99
2022-12-18T04:14:20.056Z,99.99
2022-12-18T04:15:19.948Z,99.99
2022-12-18T04:16:19.980Z,99.99
2022-12-18T04:17:19.882Z,99.99
2022-12-18T04:18:19.774Z,99.99
2022-12-18T04:19:19.744Z,99.99
2022-12-18T04:20:19.666Z,99.99
2022-12-18T04:21:24.932Z,99.99
2022-12-18T04:22:19.634Z,99.99
2022-12-18T04:23:19.513Z,99.99
2022-12-18T04:24:19.422Z,99.99
2022-12-18T04:25:19.338Z,99.99
2022-12-18T04:26:19.285Z,99.99
2022-12-18T04:27:19.213Z,99.99
2022-12-18T04:28:19.191Z,99.99
2022-12-18T04:29:19.112Z,99.99
2022-12-18T04:30:19.090Z,99.99
2022-12-18T04:31:19.016Z,99.99
2022-12-18T04:32:18.935Z,99.99
2022-12-18T04:33:18.834Z,99.99
2022-12-18T04:34:18.796Z,99.99
2022-12-18T04:35:18.733Z,99.99
2022-12-18T04:36:18.701Z,99.99
2022-12-18T04:37:18.607Z,99.99
2022-12-18T04:38:18.626Z,99.99
2022-12-18T04:39:18.485Z,99.99
2022-12-18T04:40:18.443Z,99.99
2022-12-18T04:41:18.343Z,99.99
2022-12-18T04:42:18.300Z,99.99
2022-12-18T04:43:18.261Z,99.99
2022-12-18T04:44:18.186Z,99.99
2022-12-18T04:45:18.133Z,99.99
2022-12-18T04:46:18.075Z,99.99
2022-12-18T04:47:17.977Z,99.99
2022-12-18T04:48:17.921Z,99.99
2022-12-18T04:49:17.873Z,99.99
2022-12-18T04:50:17.829Z,99.99
2022-12-18T04:51:22.028Z,99.99
2022-12-18T04:52:17.706Z,99.99
2022-12-18T04:53:17.610Z,99.99
2022-12-18T04:54:17.625Z,99.99
2022-12-18T04:55:17.496Z,99.99
2022-12-18T04:56:17.444Z,99.99
2022-12-18T04:57:17.349Z,99.99
2022-12-18T04:58:17.390Z,99.99
2022-12-18T04:59:17.244Z,99.99
2022-12-18T05:00:17.206Z,99.99
2022-12-18T05:01:17.311Z,99.99
2022-12-18T05:02:17.160Z,99.99
2022-12-18T05:03:17.033Z,99.99
2022-12-18T05:04:17.024Z,99.99
2022-12-18T05:05:16.892Z,99.99
2022-12-18T05:06:16.805Z,99.99
2022-12-18T05:07:16.734Z,99.99
2022-12-18T05:08:16.655Z,99.99
2022-12-18T05:09:16.625Z,99.99
2022-12-18T05:10:16.653Z,99.99
2022-12-18T05:11:16.537Z,99.99
2022-12-18T05:12:16.430Z,99.99
2022-12-18T05:13:16.388Z,99.99
2022-12-18T05:14:16.320Z,99.99
2022-12-18T05:15:16.236Z,99.99
2022-12-18T05:16:16.310Z,99.99
2022-12-18T05:17:16.152Z,99.99
2022-12-18T05:18:16.075Z,99.99
2022-12-18T05:19:15.986Z,99.99
2022-12-18T05:20:15.925Z,99.99
2022-12-18T05:21:15.840Z,99.99
2022-12-18T05:22:15.827Z,99.99
2022-12-18T05:23:15.729Z,99.99
2022-12-18T05:24:15.689Z,99.99
2022-12-18T05:25:15.606Z,99.99
2022-12-18T05:26:15.635Z,99.99
2022-12-18T05:27:15.476Z,99.99
2022-12-18T05:28:15.445Z,99.99
2022-12-18T05:29:15.352Z,99.99
2022-12-18T05:30:15.312Z,99.99
2022-12-18T05:31:15.279Z,99.99
2022-12-18T05:32:15.182Z,99.99
2022-12-18T05:33:15.134Z,99.99
2022-12-18T05:34:15.065Z,99.99
2022-12-18T05:35:14.976Z,99.99
2022-12-18T05:36:14.914Z,99.99
2022-12-18T05:37:14.898Z,99.99
2022-12-18T05:38:14.798Z,99.99
2022-12-18T05:39:14.764Z,99.99
2022-12-18T05:40:14.691Z,99.99
2022-12-18T05:41:14.599Z,99.99
2022-12-18T05:42:14.635Z,99.99
2022-12-18T05:43:20.801Z,99.99
2022-12-18T05:44:14.450Z,99.99
2022-12-18T05:45:14.383Z,99.99
2022-12-18T05:46:14.340Z,99.99
2022-12-18T05:47:14.249Z,99.99
2022-12-18T05:48:14.154Z,99.99
2022-12-18T05:49:14.131Z,99.99
2022-12-18T05:50:14.059Z,99.99
2022-12-18T05:51:13.986Z,99.99
2022-12-18T05:52:13.899Z,99.99
2022-12-18T05:53:13.838Z,99.99
2022-12-18T05:54:13.832Z,99.99
2022-12-18T05:55:13.732Z,99.99
2022-12-18T05:56:13.686Z,99.99
2022-12-18T05:57:13.589Z,99.99
2022-12-18T05:58:13.666Z,99.99
2022-12-18T05:59:13.490Z,99.99
2022-12-18T06:00:13.442Z,99.99
2022-12-18T06:01:13.381Z,99.99
2022-12-18T06:02:13.433Z,99.99
2022-12-18T06:03:13.335Z,99.99
2022-12-18T06:04:13.257Z,99.99
2022-12-18T06:05:13.116Z,99.99
2022-12-18T06:06:13.038Z,99.99
2022-12-18T06:07:13.012Z,99.99
2022-12-18T06:08:12.963Z,99.99
2022-12-18T06:09:12.895Z,99.99
2022-12-18T06:10:12.823Z,99.99
2022-12-18T06:11:12.783Z,99.99
2022-12-18T06:12:12.692Z,99.99
2022-12-18T06:13:12.635Z,99.99
2022-12-18T06:14:12.659Z,99.99
2022-12-18T06:15:12.511Z,99.99
2022-12-18T06:16:12.552Z,99.99
2022-12-18T06:17:12.410Z,99.99
2022-12-18T06:18:12.320Z,99.99
2022-12-18T06:19:12.272Z,99.99
2022-12-18T06:20:12.202Z,99.99
2022-12-18T06:21:12.118Z,99.99
2022-12-18T06:22:12.074Z,99.99
2022-12-18T06:23:11.992Z,99.99
2022-12-18T06:24:11.958Z,99.99
2022-12-18T06:25:11.879Z,99.99
2022-12-18T06:26:11.818Z,99.99
2022-12-18T06:27:11.760Z,99.99
2022-12-18T06:28:11.703Z,99.99
2022-12-18T06:29:11.659Z,99.99
2022-12-18T06:30:11.650Z,99.99
2022-12-18T06:31:11.560Z,99.99
2022-12-18T06:32:11.451Z,99.99
2022-12-18T06:33:11.379Z,99.99
2022-12-18T06:34:11.318Z,99.99
2022-12-18T06:35:11.239Z,99.99
2022-12-18T06:36:11.181Z,99.99
2022-12-18T06:37:11.145Z,99.99
2022-12-18T06:38:11.094Z,99.99
2022-12-18T06:39:11.021Z,99.99
2022-12-18T06:40:10.946Z,99.99
2022-12-18T06:41:10.899Z,99.99
2022-12-18T06:42:10.829Z,99.99
2022-12-18T06:43:10.790Z,99.99
2022-12-18T06:44:10.716Z,99.99
2022-12-18T06:45:10.653Z,99.99
2022-12-18T06:46:10.742Z,99.99
2022-12-18T06:47:10.499Z,99.99
2022-12-18T06:48:10.464Z,99.99
2022-12-18T06:49:10.414Z,99.99
2022-12-18T06:50:10.349Z,99.99
2022-12-18T06:51:10.260Z,99.99
2022-12-18T06:52:10.241Z,99.99
2022-12-18T06:53:10.138Z,99.99
2022-12-18T06:54:10.066Z,99.99
2022-12-18T06:55:10.010Z,99.99
2022-12-18T06:56:11.087Z,99.99
2022-12-18T06:57:09.890Z,99.99
2022-12-18T06:58:09.843Z,99.99
2022-12-18T06:59:09.775Z,99.99
2022-12-18T07:00:09.703Z,99.99
2022-12-18T07:01:09.691Z,99.99
2022-12-18T07:02:09.807Z,99.99
2022-12-18T07:03:09.550Z,99.99
2022-12-18T07:04:09.458Z,99.99
2022-12-18T07:05:11.078Z,99.99
2022-12-18T07:06:09.308Z,99.99
2022-12-18T07:07:09.250Z,99.99
2022-12-18T07:08:09.225Z,99.99
2022-12-18T07:09:09.133Z,99.99
2022-12-18T07:10:09.112Z,99.99
2022-12-18T07:11:08.993Z,99.99
2022-12-18T07:12:08.953Z,99.99
2022-12-18T07:13:08.951Z,99.99
2022-12-18T07:14:08.819Z,99.99
2022-12-18T07:15:08.781Z,99.99
2022-12-18T07:16:16.019Z,99.99
2022-12-18T07:17:08.650Z,99.99
2022-12-18T07:18:08.655Z,99.99
2022-12-18T07:19:08.527Z,99.99
2022-12-18T07:20:08.449Z,99.99
2022-12-18T07:21:08.411Z,99.99
2022-12-18T07:22:08.324Z,99.99
2022-12-18T07:23:08.243Z,99.99
2022-12-18T07:24:08.208Z,99.99
2022-12-18T07:25:08.145Z,99.99
2022-12-18T07:26:08.072Z,99.99
2022-12-18T07:27:08.078Z,99.99
2022-12-18T07:28:10.602Z,99.99
2022-12-18T07:29:07.884Z,99.99
2022-12-18T07:30:07.817Z,99.99
2022-12-18T07:31:07.760Z,99.98
2022-12-18T07:32:07.760Z,99.98
2022-12-18T07:33:07.628Z,99.60
2022-12-18T07:34:07.662Z,99.32
2022-12-18T07:35:07.486Z,99.32
2022-12-18T07:36:07.491Z,99.51
2022-12-18T07:37:07.378Z,99.13
2022-12-18T07:38:07.350Z,99.13
2022-12-18T07:39:07.276Z,98.66
2022-12-18T07:40:07.204Z,99.22
2022-12-18T07:41:07.116Z,98.66
2022-12-18T07:42:07.074Z,99.13
2022-12-18T07:43:07.046Z,99.60
2022-12-18T07:44:06.971Z,99.51
2022-12-18T07:45:06.887Z,99.32
2022-12-18T07:46:06.898Z,99.32
2022-12-18T07:47:11.812Z,99.60
2022-12-18T07:48:06.736Z,99.60
2022-12-18T07:49:06.646Z,99.51
2022-12-18T07:50:06.649Z,99.41
2022-12-18T07:51:06.517Z,99.41
2022-12-18T07:52:06.454Z,99.60
2022-12-18T07:53:06.398Z,98.94
2022-12-18T07:54:06.344Z,98.94
2022-12-18T07:55:06.297Z,98.66
2022-12-18T07:56:26.606Z,98.28
2022-12-18T07:57:16.536Z,98.00
2022-12-18T07:58:06.077Z,98.00
2022-12-18T07:59:06.044Z,98.28
2022-12-18T08:00:05.994Z,98.75
2022-12-18T08:01:05.905Z,99.13
2022-12-18T08:02:05.965Z,99.22
2022-12-18T08:03:05.818Z,99.60
2022-12-18T08:04:05.735Z,99.60
2022-12-18T08:05:05.636Z,99.32
2022-12-18T08:06:05.695Z,99.60
2022-12-18T08:07:05.525Z,99.04
2022-12-18T08:08:05.464Z,98.75
2022-12-18T08:09:05.407Z,98.10
2022-12-18T08:10:05.345Z,98.10
2022-12-18T08:11:05.275Z,97.43
2022-12-18T08:12:05.223Z,97.53
2022-12-18T08:13:05.465Z,97.20
2022-12-18T08:14:05.135Z,96.54
2022-12-18T08:15:05.041Z,94.79
2022-12-18T08:16:04.983Z,93.23
2022-12-18T08:17:04.994Z,90.68
2022-12-18T08:18:04.861Z,89.12
2022-12-18T08:19:04.804Z,87.04
2022-12-18T08:20:04.730Z,85.42
2022-12-18T08:21:04.674Z,84.67
2022-12-18T08:22:04.665Z,83.10
2022-12-18T08:23:04.563Z,83.10
2022-12-18T08:24:04.495Z,82.06
2022-12-18T08:25:04.592Z,81.87
2022-12-18T08:26:04.384Z,81.21
2022-12-18T08:27:28.369Z,80.83
2022-12-18T08:28:04.269Z,80.93
2022-12-18T08:29:04.236Z,80.45
2022-12-18T08:30:04.148Z,80.77
2022-12-18T08:31:04.110Z,79.41
2022-12-18T08:32:04.110Z,79.83
2022-12-18T08:33:03.982Z,80.02
2022-12-18T08:34:03.953Z,78.88
2022-12-18T08:35:03.852Z,79.07
2022-12-18T08:36:03.812Z,79.41
2022-12-18T08:37:03.772Z,79.13
2022-12-18T08:38:03.816Z,79.36
2022-12-18T08:39:03.660Z,78.13
2022-12-18T08:40:03.622Z,76.89
2022-12-18T08:41:03.563Z,76.51
2022-12-18T08:42:09.771Z,76.23
2022-12-18T08:43:03.457Z,75.76
2022-12-18T08:44:03.392Z,75.66
2022-12-18T08:45:03.318Z,75.34
2022-12-18T08:46:03.293Z,76.29
2022-12-18T08:47:03.248Z,76.57
2022-12-18T08:48:03.189Z,76.95
2022-12-18T08:49:03.129Z,77.23
2022-12-18T08:50:03.053Z,76.48
2022-12-18T08:51:03.012Z,76.38
2022-12-18T08:52:03.107Z,76.82
2022-12-18T08:53:02.906Z,77.10
2022-12-18T08:54:02.939Z,77.95
2022-12-18T08:55:02.803Z,77.23
2022-12-18T08:56:02.761Z,76.86
2022-12-18T08:57:02.686Z,75.95
2022-12-18T08:58:02.643Z,74.81
2022-12-18T08:59:02.583Z,74.05
2022-12-18T09:00:02.601Z,73.92
2022-12-18T09:01:03.759Z,74.21
2022-12-18T09:02:02.609Z,75.43
2022-12-18T09:03:02.461Z,74.96
2022-12-18T09:04:02.307Z,74.71
2022-12-18T09:05:02.233Z,74.24
2022-12-18T09:06:02.204Z,73.77
2022-12-18T09:07:02.179Z,73.58
2022-12-18T09:08:02.080Z,73.11
2022-12-18T09:09:02.048Z,72.53
2022-12-18T09:10:02.086Z,72.19
2022-12-18T09:11:01.940Z,71.81
2022-12-18T09:12:01.909Z,71.62
2022-12-18T09:13:01.838Z,70.97
2022-12-18T09:14:01.806Z,70.39
2022-12-18T09:15:01.740Z,69.82
2022-12-18T09:16:01.709Z,69.45
2022-12-18T09:17:02.677Z,69.67
2022-12-18T09:18:01.579Z,68.69
2022-12-18T09:19:01.533Z,68.88
2022-12-18T09:20:01.473Z,68.79
2022-12-18T09:21:01.421Z,69.45
2022-12-18T09:22:01.402Z,70.17
2022-12-18T09:23:01.324Z,69.89
2022-12-18T09:24:01.256Z,69.92
2022-12-18T09:25:01.217Z,70.11
2022-12-18T09:26:01.261Z,70.11
2022-12-18T09:27:01.111Z,69.70
2022-12-18T09:28:01.057Z,69.92
2022-12-18T09:29:01.018Z,69.64
2022-12-18T09:30:00.986Z,69.45
2022-12-18T09:31:00.963Z,68.98
2022-12-18T09:32:00.839Z,68.79
2022-12-18T09:33:00.801Z,68.59
2022-12-18T09:34:00.777Z,68.40
2022-12-18T09:35:00.684Z,68.69
2022-12-18T09:36:00.626Z,68.79
2022-12-18T09:37:00.605Z,68.50
2022-12-18T09:38:00.532Z,68.69
2022-12-18T09:39:04.996Z,68.84
2022-12-18T09:40:00.481Z,68.94
2022-12-18T09:41:00.397Z,69.41
2022-12-18T09:42:00.444Z,69.41
2022-12-18T09:43:00.259Z,69.98
2022-12-18T09:44:00.217Z,69.51
2022-12-18T09:45:00.246Z,68.79
2022-12-18T09:46:00.226Z,69.17
2022-12-18T09:47:00.056Z,68.50
2022-12-18T09:47:59.997Z,67.87
2022-12-18T09:48:59.952Z,67.02
2022-12-18T09:49:59.957Z,66.35
2022-12-18T09:50:59.902Z,65.41
2022-12-18T09:51:59.793Z,64.36
2022-12-18T09:52:59.767Z,64.74
2022-12-18T09:53:59.684Z,65.31
2022-12-18T09:54:59.683Z,65.31
2022-12-18T09:55:59.566Z,64.84
2022-12-18T09:56:59.535Z,64.74
2022-12-18T09:57:59.570Z,64.84
2022-12-18T09:58:59.481Z,65.37
2022-12-18T09:59:59.348Z,65.75
2022-12-18T10:00:59.328Z,66.76
2022-12-18T10:01:59.441Z,68.27
2022-12-18T10:02:59.351Z,68.71
2022-12-18T10:03:59.192Z,69.38
2022-12-18T10:04:59.136Z,70.14
2022-12-18T10:05:59.062Z,70.32
2022-12-18T10:06:59.316Z,70.14
2022-12-18T10:07:58.955Z,69.95
2022-12-18T10:08:58.935Z,69.85
2022-12-18T10:09:58.828Z,69.76
2022-12-18T10:10:58.816Z,70.04
2022-12-18T10:11:58.724Z,69.60
2022-12-18T10:13:04.308Z,68.75
2022-12-18T10:13:58.715Z,68.84
2022-12-18T10:14:58.651Z,67.18
2022-12-18T10:15:58.599Z,67.49
2022-12-18T10:16:58.474Z,66.74
2022-12-18T10:17:58.413Z,64.93
2022-12-18T10:18:58.362Z,64.84
2022-12-18T10:19:58.329Z,64.08
2022-12-18T10:20:58.287Z,64.55
2022-12-18T10:21:58.210Z,64.87
2022-12-18T10:22:58.129Z,65.25
2022-12-18T10:23:58.091Z,65.34
2022-12-18T10:24:58.050Z,64.40
2022-12-18T10:25:57.968Z,64.55
2022-12-18T10:26:57.939Z,63.98
2022-12-18T10:27:57.873Z,64.08
2022-12-18T10:29:02.176Z,63.60
2022-12-18T10:29:57.846Z,63.10
2022-12-18T10:30:57.842Z,63.32
2022-12-18T10:31:57.665Z,62.91
2022-12-18T10:32:57.614Z,63.32
2022-12-18T10:33:57.561Z,63.39
2022-12-18T10:35:00.411Z,63.01
2022-12-18T10:35:57.446Z,63.29
2022-12-18T10:36:57.389Z,62.72
2022-12-18T10:37:57.346Z,63.10
2022-12-18T10:38:57.251Z,63.42
2022-12-18T10:39:57.195Z,62.56
2022-12-18T10:40:57.185Z,62.75
2022-12-18T10:41:57.113Z,62.75
2022-12-18T10:42:57.058Z,62.75
2022-12-18T10:43:57.026Z,62.18
2022-12-18T10:44:56.955Z,61.36
2022-12-18T10:45:57.034Z,61.46
2022-12-18T10:46:56.941Z,60.89
2022-12-18T10:47:56.794Z,60.98
2022-12-18T10:48:56.800Z,60.31
2022-12-18T10:49:56.699Z,60.13
2022-12-18T10:51:12.778Z,59.84
2022-12-18T10:51:56.610Z,59.75
2022-12-18T10:52:56.561Z,59.84
2022-12-18T10:53:56.473Z,58.89
2022-12-18T10:54:56.442Z,59.08
2022-12-18T10:55:56.353Z,59.66
2022-12-18T10:56:56.347Z,58.99
2022-12-18T10:57:56.246Z,59.18
2022-12-18T10:58:56.214Z,58.73
2022-12-18T10:59:56.121Z,59.11
2022-12-18T11:00:56.101Z,59.18
2022-12-18T11:01:56.350Z,59.27
2022-12-18T11:02:56.315Z,59.08
2022-12-18T11:04:01.603Z,58.70
2022-12-18T11:04:55.923Z,59.37
2022-12-18T11:05:55.817Z,59.56
2022-12-18T11:06:55.777Z,59.94
2022-12-18T11:07:55.719Z,60.31
2022-12-18T11:08:55.669Z,59.37
2022-12-18T11:09:55.623Z,58.89
2022-12-18T11:10:55.565Z,58.96
2022-12-18T11:11:55.496Z,59.15
2022-12-18T11:12:55.486Z,59.72
2022-12-18T11:13:55.406Z,60.47
2022-12-18T11:14:55.348Z,60.47
2022-12-18T11:15:55.352Z,60.57
2022-12-18T11:17:24.307Z,61.02
2022-12-18T11:17:55.269Z,61.30
2022-12-18T11:18:55.154Z,61.68
2022-12-18T11:19:55.085Z,61.68
2022-12-18T11:20:58.452Z,62.34
2022-12-18T11:21:54.964Z,62.40
2022-12-18T11:22:54.898Z,62.69
2022-12-18T11:23:54.888Z,62.78
2022-12-18T11:25:29.578Z,63.16
2022-12-18T11:25:54.758Z,63.64
2022-12-18T11:26:59.520Z,63.45
2022-12-18T11:27:54.654Z,63.45
2022-12-18T11:28:54.565Z,63.64
2022-12-18T11:29:54.481Z,63.82
2022-12-18T11:30:54.478Z,64.26
2022-12-18T11:31:54.401Z,63.98
2022-12-18T11:32:54.346Z,64.45
2022-12-18T11:34:26.850Z,65.21
2022-12-18T11:34:58.927Z,65.31
2022-12-18T11:35:54.178Z,65.12
2022-12-18T11:36:54.118Z,65.31
2022-12-18T11:37:54.050Z,65.31
2022-12-18T11:38:54.047Z,65.69
2022-12-18T11:39:53.953Z,65.50
2022-12-18T11:40:53.874Z,65.59
2022-12-18T11:41:53.801Z,65.12
2022-12-18T11:42:53.732Z,65.02
2022-12-18T11:43:53.697Z,65.12
2022-12-18T11:44:53.675Z,64.74
2022-12-18T11:45:53.567Z,65.40
2022-12-18T11:46:53.622Z,65.02
2022-12-18T11:47:53.473Z,64.36
2022-12-18T11:48:53.399Z,64.26
2022-12-18T11:49:53.463Z,65.02
2022-12-18T11:50:53.287Z,65.12
2022-12-18T11:51:53.224Z,65.31
2022-12-18T11:52:58.188Z,65.31
2022-12-18T11:53:53.102Z,64.64
2022-12-18T11:54:53.070Z,65.21
2022-12-18T11:55:52.979Z,64.99
2022-12-18T11:56:52.937Z,65.66
2022-12-18T11:57:52.884Z,65.88
2022-12-18T11:58:52.853Z,66.03
2022-12-18T11:59:52.765Z,66.44
2022-12-18T12:00:52.684Z,66.44
2022-12-18T12:01:52.767Z,66.35
2022-12-18T12:02:52.593Z,66.06
2022-12-18T12:03:52.617Z,65.75
2022-12-18T12:04:52.487Z,65.31
2022-12-18T12:05:52.490Z,65.59
2022-12-18T12:06:52.359Z,65.97
2022-12-18T12:07:52.294Z,65.97
2022-12-18T12:08:52.230Z,66.25
2022-12-18T12:09:52.173Z,66.25
2022-12-18T12:10:52.136Z,66.03
2022-12-18T12:11:52.095Z,66.13
2022-12-18T12:12:51.994Z,66.31
2022-12-18T12:13:51.943Z,66.79
2022-12-18T12:14:51.847Z,66.69
2022-12-18T12:15:51.807Z,67.07
2022-12-18T12:16:51.770Z,66.69
2022-12-18T12:17:51.696Z,67.64
2022-12-18T12:18:51.628Z,67.64
2022-12-18T12:19:51.558Z,66.98
2022-12-18T12:20:51.515Z,67.17
2022-12-18T12:21:51.545Z,66.79
2022-12-18T12:22:51.436Z,67.36
2022-12-18T12:23:51.353Z,68.21
2022-12-18T12:24:51.284Z,67.83
2022-12-18T12:25:51.234Z,68.30
2022-12-18T12:26:51.181Z,68.21
2022-12-18T12:27:51.106Z,68.12
2022-12-18T12:28:51.053Z,68.68
2022-12-18T12:29:50.998Z,69.15
2022-12-18T12:30:50.970Z,69.25
2022-12-18T12:31:50.880Z,69.25
2022-12-18T12:32:50.839Z,69.06
2022-12-18T12:33:50.746Z,69.06
2022-12-18T12:34:52.627Z,69.25
2022-12-18T12:35:50.638Z,69.15
2022-12-18T12:36:50.576Z,70.01
2022-12-18T12:37:50.620Z,69.82
2022-12-18T12:38:52.339Z,70.01
2022-12-18T12:39:50.388Z,70.29
2022-12-18T12:40:55.209Z,70.29
2022-12-18T12:41:53.302Z,69.97
2022-12-18T12:42:52.777Z,70.20
2022-12-18T12:43:53.256Z,70.63
2022-12-18T12:45:50.114Z,71.11
2022-12-18T12:46:49.985Z,71.11
2022-12-18T12:47:49.941Z,71.20
2022-12-18T12:48:49.846Z,70.82
2022-12-18T12:49:50.804Z,71.01
2022-12-18T12:50:49.743Z,71.39
2022-12-18T12:51:49.684Z,71.95
2022-12-18T12:52:49.635Z,71.48